»·PEaware :: N969DA KPDX-KTMK

N969DA :: KPDX-KTMK

FLIGHT INFORMATION

Flight Status: Arrived
Operator: Privately registered:
United States
More flights under this callsign
Pilot: Anonymous 20880 (20880)
Aircraft: Unknown
(DA62)
More flights by this aircraft type
Origin: KPDX Portland Intl
United States
Destination: KTMK Tillamook
United States
More flights between these airports :: More routes between these airports
Route: +JEQEF FETUJ
File this flight plan on PilotEdge
Remarks:
Altitude:
(Current/Filed)
6,000ft
Speed:
(Current/Filed)
150kts
Departed: 02-Jan-19 10:09 PM
Arrived: 02-Jan-19 10:54 PM
Distance/Time
Traveled:
52nm/0:44
Distance/Time
To Go:
Arrived

Flight Plot

Page will automatically refresh every two minutes.

Flight plan parsing failed; only flown route is shown


Map Options




Map Legend


Flown Route
Filed Route
Departure Airport
Arrival Airport
Navaid (VOR, NDB)
Fix

Horizontal Profiles

Position Reports

Time Latitude Longitude Heading Altitude Ground
Speed
02-Jan-19 21:37 45.586718 -122.581563 299 33ft 0kts
02-Jan-19 21:38 45.586718 -122.581563 299 33ft 0kts
02-Jan-19 21:39 45.586718 -122.581563 299 33ft 0kts
02-Jan-19 21:40 45.586718 -122.581563 299 33ft 0kts
02-Jan-19 21:41 45.586718 -122.581563 299 33ft 0kts
02-Jan-19 21:42 45.586718 -122.581563 299 33ft 0kts
02-Jan-19 21:43 45.586718 -122.581563 299 33ft 0kts
02-Jan-19 21:44 45.586718 -122.581563 299 33ft 0kts
02-Jan-19 21:45 45.586718 -122.581563 299 33ft 0kts
02-Jan-19 21:46 45.586718 -122.581563 299 33ft 0kts
02-Jan-19 21:47 45.586718 -122.581563 299 33ft 0kts
02-Jan-19 21:48 45.586718 -122.581563 299 33ft 0kts
02-Jan-19 21:49 45.586718 -122.581563 299 33ft 0kts
02-Jan-19 21:50 45.586718 -122.581563 299 33ft 0kts
02-Jan-19 21:51 45.586718 -122.581563 299 33ft 0kts
02-Jan-19 21:52 45.586718 -122.581563 299 33ft 0kts
02-Jan-19 21:53 45.586718 -122.581563 299 33ft 0kts
02-Jan-19 21:54 45.586718 -122.581563 299 33ft 0kts
02-Jan-19 21:55 45.586718 -122.581563 299 33ft 0kts
02-Jan-19 21:56 45.586718 -122.581563 299 33ft 0kts
02-Jan-19 21:57 45.586718 -122.581563 299 33ft 0kts
02-Jan-19 21:58 45.586718 -122.581563 299 33ft 0kts
02-Jan-19 21:59 45.586718 -122.581563 299 33ft 0kts
02-Jan-19 22:00 45.586718 -122.581563 299 33ft 0kts
02-Jan-19 22:01 45.586718 -122.581563 299 33ft 0kts
02-Jan-19 22:02 45.586725 -122.581581 299 33ft 2kts
02-Jan-19 22:03 45.589111 -122.584255 297 33ft 19kts
02-Jan-19 22:04 45.592408 -122.592723 299 33ft 23kts
02-Jan-19 22:05 45.593894 -122.596051 356 33ft 0kts
02-Jan-19 22:06 45.593894 -122.596051 356 33ft 0kts
02-Jan-19 22:07 45.593900 -122.596051 357 33ft 2kts
02-Jan-19 22:08 45.587937 -122.579025 123 334ft 97kts
02-Jan-19 22:09 45.575517 -122.548569 117 1695ft 87kts
02-Jan-19 22:10 45.563505 -122.517187 121 2873ft 93kts
02-Jan-19 22:11 45.539525 -122.507321 190 3960ft 107kts
02-Jan-19 22:12 45.510623 -122.522481 194 4974ft 113kts
02-Jan-19 22:13 45.480876 -122.537905 194 5851ft 116kts
02-Jan-19 22:14 45.446480 -122.554296 194 6003ft 144kts
02-Jan-19 22:15 45.411037 -122.571082 194 5996ft 128kts
02-Jan-19 22:16 45.377873 -122.587950 194 5997ft 125kts
02-Jan-19 22:17 45.341846 -122.601774 194 6004ft 144kts
02-Jan-19 22:18 45.308614 -122.623579 265 5997ft 131kts
02-Jan-19 22:19 45.322133 -122.668169 300 6006ft 136kts
02-Jan-19 22:20 45.338819 -122.718411 294 6001ft 146kts
02-Jan-19 22:21 45.354942 -122.769986 291 5999ft 142kts
02-Jan-19 22:22 45.370605 -122.820589 292 5997ft 143kts
02-Jan-19 22:23 45.386039 -122.870531 293 5995ft 143kts
02-Jan-19 22:24 45.401820 -122.921553 293 5993ft 143kts
02-Jan-19 22:25 45.417679 -122.972959 292 5991ft 143kts
02-Jan-19 22:26 45.433599 -123.024695 292 5991ft 142kts
02-Jan-19 22:27 45.448867 -123.074457 291 5990ft 141kts
02-Jan-19 22:28 45.464122 -123.124211 291 5997ft 141kts
02-Jan-19 22:29 45.479850 -123.175427 292 6000ft 141kts
02-Jan-19 22:30 45.495012 -123.225079 292 6001ft 140kts
02-Jan-19 22:31 45.508914 -123.270706 293 6002ft 140kts
02-Jan-19 22:32 45.522711 -123.316075 293 6002ft 140kts
02-Jan-19 22:34 45.537444 -123.364611 293 6002ft 141kts
02-Jan-19 22:35 45.551112 -123.409652 292 5996ft 141kts
02-Jan-19 22:36 45.563559 -123.450775 290 5990ft 142kts
02-Jan-19 22:37 45.578773 -123.501255 286 6013ft 152kts
02-Jan-19 22:38 45.595571 -123.557030 286 6005ft 157kts
02-Jan-19 22:39 45.612969 -123.614943 287 6001ft 164kts
02-Jan-19 22:40 45.630467 -123.673250 286 6000ft 167kts
02-Jan-19 22:41 45.647718 -123.730724 285 5994ft 144kts
02-Jan-19 22:42 45.662516 -123.780333 285 5996ft 129kts
02-Jan-19 22:43 45.655346 -123.824402 239 5106ft 119kts
02-Jan-19 22:44 45.640788 -123.871037 240 4501ft 130kts
02-Jan-19 22:45 45.626619 -123.915909 239 4498ft 121kts
02-Jan-19 22:46 45.603880 -123.931822 161 4181ft 111kts
02-Jan-19 22:47 45.578468 -123.917293 156 3744ft 113kts
02-Jan-19 22:48 45.552068 -123.900680 155 3231ft 117kts
02-Jan-19 22:49 45.524527 -123.883108 155 2651ft 107kts
02-Jan-19 22:50 45.497592 -123.865853 155 2098ft 106kts
02-Jan-19 22:51 45.470714 -123.848629 155 1549ft 106kts
02-Jan-19 22:52 45.444688 -123.831959 155 1079ft 92kts
02-Jan-19 22:53 45.422207 -123.817520 158 29ft 50kts
02-Jan-19 22:54 45.421017 -123.815617 68 30ft 0kts
02-Jan-19 22:55 45.421337 -123.814192 98 32ft 10kts
02-Jan-19 22:56 45.420640 -123.812343 129 33ft 0kts
02-Jan-19 22:56 45.422218 -123.810405 29 36ft 22kts
02-Jan-19 22:58 45.422681 -123.804490 47 46ft 0kts

Navigation Log

Ident Type
Flight plan parsing failed, navigation log unavailable